Parkerford, Pennsylvania
Current Conditions -  °F | °C
As of 8:54 AM on Tuesday 27 Jan 2015 (Local Time) from KPTW Reporting Station
Overcast Overcast  
Wind Chill: 15°   Ceiling: 7500
Heat Index: 25°   Visibility: 10mi
Dew Point: 17°   Wind: 10mph
Humidity: 72%   Direction: 340°NNW
Pressure: 29.77"   Gusts: NA
Location:  40.2094°N, 75.5919°W
Report Text: KPTW 271354Z AUTO 34009KT 10SM OVC075 M04/M08 A2977 RMK AO2 SLP081 T10391083
Loading
Personal Weather Stations






























Interactive Weather Map New forecast layout! Learn more

10-Day Weather Forecast

Advertisements
Track Severe Weather on mobile